createdAt,value
2019-03-11T00:00:01.344Z,9.78
2019-03-11T00:02:34.473Z,9.86
2019-03-11T00:05:05.825Z,9.48
2019-03-11T00:07:36.023Z,9.85
2019-03-11T00:10:07.651Z,10.90
2019-03-11T00:12:37.828Z,10.14
2019-03-11T00:15:09.835Z,9.90
2019-03-11T00:17:40.055Z,10.63
2019-03-11T00:20:11.947Z,10.04
2019-03-11T00:22:42.094Z,9.33
2019-03-11T00:25:12.822Z,9.87
2019-03-11T00:27:42.974Z,9.79
2019-03-11T00:30:13.358Z,9.56
2019-03-11T00:32:43.873Z,7.88
2019-03-11T00:35:14.517Z,8.66
2019-03-11T00:37:44.853Z,9.28
2019-03-11T00:40:15.538Z,9.29
2019-03-11T00:42:45.688Z,9.59
2019-03-11T00:45:15.941Z,9.69
2019-03-11T00:47:46.510Z,9.48
2019-03-11T00:50:16.653Z,9.66
2019-03-11T00:52:48.436Z,9.75
2019-03-11T00:55:18.580Z,9.53
2019-03-11T00:57:55.081Z,9.44
2019-03-11T01:00:31.677Z,9.59
2019-03-11T01:03:03.128Z,8.36
2019-03-11T01:05:33.991Z,9.31
2019-03-11T01:08:05.579Z,9.13
2019-03-11T01:10:36.282Z,9.06
2019-03-11T01:13:06.527Z,8.09
2019-03-11T01:15:36.684Z,8.18
2019-03-11T01:18:06.840Z,8.35
2019-03-11T01:20:37.405Z,8.30
2019-03-11T01:23:09.526Z,8.25
2019-03-11T01:25:42.556Z,8.23
2019-03-11T01:28:12.757Z,6.82
2019-03-11T01:30:42.938Z,7.41
2019-03-11T01:33:13.097Z,8.11
2019-03-11T01:35:43.227Z,7.85
2019-03-11T01:38:14.159Z,7.90
2019-03-11T01:40:44.807Z,8.31
2019-03-11T01:43:14.947Z,8.86
2019-03-11T01:45:45.160Z,8.76
2019-03-11T01:48:15.290Z,9.49
2019-03-11T01:50:45.790Z,9.22
2019-03-11T01:53:18.984Z,8.22
2019-03-11T01:55:50.709Z,8.98
2019-03-11T01:58:21.951Z,9.26
2019-03-11T02:00:52.658Z,9.06
2019-03-11T02:03:24.351Z,9.12
2019-03-11T02:05:55.536Z,9.00
2019-03-11T02:08:28.349Z,9.20
2019-03-11T02:10:58.494Z,9.32
2019-03-11T02:13:28.653Z,9.75
2019-03-11T02:15:58.828Z,9.28
2019-03-11T02:18:29.422Z,9.42
2019-03-11T02:20:59.594Z,9.91
2019-03-11T02:23:31.429Z,9.90
2019-03-11T02:26:01.942Z,10.15
2019-03-11T02:28:32.493Z,10.42
2019-03-11T02:31:02.792Z,10.39
2019-03-11T02:33:33.401Z,10.25
2019-03-11T02:36:03.689Z,10.32
2019-03-11T02:38:35.363Z,10.22
2019-03-11T02:41:05.513Z,10.39
2019-03-11T02:43:35.826Z,10.43
2019-03-11T02:46:06.135Z,9.97
2019-03-11T02:48:36.769Z,9.69
2019-03-11T02:51:06.920Z,9.24
2019-03-11T02:53:39.123Z,9.18
2019-03-11T02:56:09.282Z,9.36
2019-03-11T02:58:39.932Z,9.32
2019-03-11T03:01:47.493Z,9.04
2019-03-11T03:04:23.135Z,9.40
2019-03-11T03:06:53.263Z,9.44
2019-03-11T03:09:23.493Z,9.85
2019-03-11T03:11:55.029Z,10.21
2019-03-11T03:14:25.204Z,10.35
2019-03-11T03:16:55.330Z,10.26
2019-03-11T03:19:25.537Z,10.46
2019-03-11T03:21:56.115Z,10.86
2019-03-11T03:24:26.691Z,10.26
2019-03-11T03:26:56.822Z,10.69
2019-03-11T03:29:28.298Z,9.74
2019-03-11T03:31:58.947Z,10.53
2019-03-11T03:34:29.138Z,10.46
2019-03-11T03:36:59.284Z,10.44
2019-03-11T03:39:29.447Z,10.33
2019-03-11T03:41:59.746Z,10.70
2019-03-11T03:44:30.387Z,10.31
2019-03-11T03:47:01.375Z,10.45
2019-03-11T03:49:31.953Z,9.93
2019-03-11T03:52:02.103Z,10.43
2019-03-11T03:54:34.360Z,9.82
2019-03-11T03:57:04.524Z,9.94
2019-03-11T03:59:35.432Z,9.91
2019-03-11T04:02:05.574Z,10.22
2019-03-11T04:04:37.325Z,9.87
2019-03-11T04:07:07.458Z,9.78
2019-03-11T04:09:37.617Z,9.67
2019-03-11T04:12:07.816Z,9.74
2019-03-11T04:14:38.386Z,9.98
2019-03-11T04:17:08.533Z,10.33
2019-03-11T04:19:39.675Z,10.26
2019-03-11T04:22:09.913Z,10.35
2019-03-11T04:24:42.059Z,9.89
2019-03-11T04:27:12.963Z,10.23
2019-03-11T04:29:43.130Z,10.38
2019-03-11T04:32:13.263Z,10.39
2019-03-11T04:34:43.441Z,9.81
2019-03-11T04:37:14.104Z,10.44
2019-03-11T04:39:47.102Z,10.32
2019-03-11T04:42:17.594Z,10.75
2019-03-11T04:44:47.746Z,10.80
2019-03-11T04:47:18.154Z,10.69
2019-03-11T04:49:48.298Z,10.03
2019-03-11T04:52:20.258Z,10.75
2019-03-11T04:54:51.918Z,9.83
2019-03-11T04:57:23.520Z,10.42
2019-03-11T04:59:54.798Z,9.86
2019-03-11T05:02:25.749Z,8.91
2019-03-11T05:04:57.796Z,9.72
2019-03-11T05:07:28.959Z,9.00
2019-03-11T05:09:59.452Z,9.16
2019-03-11T05:12:30.906Z,8.77
2019-03-11T05:15:02.623Z,8.95
2019-03-11T05:17:32.813Z,9.10
2019-03-11T05:20:03.341Z,8.88
2019-03-11T05:22:35.438Z,9.01
2019-03-11T05:25:06.107Z,8.49
2019-03-11T05:27:37.346Z,9.12
2019-03-11T05:30:09.380Z,9.28
2019-03-11T05:32:40.914Z,9.62
2019-03-11T05:35:11.049Z,9.74
2019-03-11T05:37:41.291Z,9.98
2019-03-11T05:40:13.455Z,9.93
2019-03-11T05:42:44.533Z,10.11
2019-03-11T05:45:15.679Z,9.20
2019-03-11T05:47:46.273Z,9.27
2019-03-11T05:50:16.421Z,9.21
2019-03-11T05:52:46.671Z,8.92
2019-03-11T05:55:17.950Z,8.77
2019-03-11T05:57:48.579Z,9.23
2019-03-11T06:00:22.831Z,9.24
2019-03-11T06:02:53.009Z,9.32
2019-03-11T06:05:24.565Z,9.41
2019-03-11T06:07:55.209Z,9.70
2019-03-11T06:10:26.778Z,9.29
2019-03-11T06:12:56.939Z,9.30
2019-03-11T06:15:27.093Z,8.89
2019-03-11T06:17:57.711Z,8.86
2019-03-11T06:20:33.626Z,8.67
2019-03-11T06:23:05.037Z,8.76
2019-03-11T06:25:35.614Z,9.11
2019-03-11T06:28:07.003Z,9.10
2019-03-11T06:30:38.639Z,9.24
2019-03-11T06:33:09.703Z,8.83
2019-03-11T06:35:40.566Z,9.41
2019-03-11T06:38:11.562Z,9.00
2019-03-11T06:40:41.720Z,8.98
2019-03-11T06:43:11.908Z,8.74
2019-03-11T06:45:42.072Z,8.00
2019-03-11T06:48:12.769Z,8.04
2019-03-11T06:50:42.931Z,7.35
2019-03-11T06:53:13.071Z,7.82
2019-03-11T06:55:44.093Z,7.47
2019-03-11T06:58:14.678Z,7.37
2019-03-11T07:00:44.903Z,7.38
2019-03-11T07:03:15.053Z,8.03
2019-03-11T07:05:45.216Z,7.55
2019-03-11T07:08:15.441Z,7.73
2019-03-11T07:10:46.043Z,7.86
2019-03-11T07:13:16.671Z,7.93
2019-03-11T07:15:46.864Z,8.48
2019-03-11T07:18:17.237Z,7.97
2019-03-11T07:20:47.589Z,8.12
2019-03-11T07:23:17.809Z,7.93
2019-03-11T07:25:48.248Z,8.27
2019-03-11T07:28:18.435Z,8.78
2019-03-11T07:30:48.631Z,8.87
2019-03-11T07:33:18.797Z,7.81
2019-03-11T07:35:48.934Z,8.22
2019-03-11T07:38:19.258Z,8.88
2019-03-11T07:40:49.873Z,8.91
2019-03-11T07:43:19.984Z,8.20
2019-03-11T07:45:51.392Z,8.77
2019-03-11T07:48:21.529Z,8.36
2019-03-11T07:50:51.675Z,8.78
2019-03-11T07:53:21.959Z,8.69
2019-03-11T07:55:53.559Z,8.55
2019-03-11T07:58:23.717Z,9.18
2019-03-11T08:00:54.396Z,8.54
2019-03-11T08:03:24.619Z,8.81
2019-03-11T08:05:56.121Z,8.70
2019-03-11T08:08:26.826Z,8.70
2019-03-11T08:10:58.152Z,8.58
2019-03-11T08:13:29.280Z,8.38
2019-03-11T08:15:59.460Z,8.52
2019-03-11T08:18:34.911Z,8.41
2019-03-11T08:21:02.943Z,8.40
2019-03-11T08:23:35.792Z,8.80
2019-03-11T08:26:06.791Z,8.72
2019-03-11T08:28:37.433Z,8.83
2019-03-11T08:31:08.418Z,8.95
2019-03-11T08:33:41.153Z,8.39
2019-03-11T08:36:12.427Z,7.84
2019-03-11T08:38:43.031Z,8.61
2019-03-11T08:41:13.209Z,8.65
2019-03-11T08:43:43.360Z,9.14
2019-03-11T08:46:13.570Z,7.96
2019-03-11T08:48:44.352Z,8.51
2019-03-11T08:51:14.490Z,8.71
2019-03-11T08:53:44.667Z,8.96
2019-03-11T08:56:15.983Z,8.24
2019-03-11T08:58:46.559Z,8.39
2019-03-11T09:01:16.732Z,7.89
2019-03-11T09:03:48.017Z,8.98
2019-03-11T09:06:18.352Z,7.55
2019-03-11T09:08:48.991Z,8.40
2019-03-11T09:11:19.744Z,8.46
2019-03-11T09:13:49.970Z,7.92
2019-03-11T09:16:20.605Z,8.56
2019-03-11T09:18:51.205Z,8.06
2019-03-11T09:21:22.149Z,8.48
2019-03-11T09:23:53.802Z,8.46
2019-03-11T09:26:24.774Z,8.87
2019-03-11T09:28:55.392Z,8.53
2019-03-11T09:31:25.536Z,7.97
2019-03-11T09:33:56.059Z,8.99
2019-03-11T09:36:26.216Z,8.95
2019-03-11T09:38:56.374Z,9.62
2019-03-11T09:41:27.927Z,9.77
2019-03-11T09:43:59.501Z,9.27
2019-03-11T09:46:29.917Z,9.26
2019-03-11T09:49:00.940Z,9.34
2019-03-11T09:51:35.489Z,9.48
2019-03-11T09:54:16.684Z,9.54
2019-03-11T09:56:50.096Z,9.92
2019-03-11T09:59:21.526Z,9.74
2019-03-11T10:01:51.660Z,9.77
2019-03-11T10:04:21.855Z,10.46
2019-03-11T10:06:52.602Z,10.79
2019-03-11T10:09:24.296Z,10.82
2019-03-11T10:11:54.478Z,11.00
2019-03-11T10:14:24.626Z,10.52
2019-03-11T10:16:54.802Z,10.99
2019-03-11T10:19:26.822Z,10.66
2019-03-11T10:21:57.102Z,10.68
2019-03-11T10:24:27.983Z,10.61
2019-03-11T10:26:58.252Z,10.66
2019-03-11T10:29:28.866Z,10.71
2019-03-11T10:31:59.070Z,10.95
2019-03-11T10:34:29.252Z,11.06
2019-03-11T10:36:59.403Z,11.26
2019-03-11T10:39:29.591Z,11.22
2019-03-11T10:42:00.192Z,11.55
2019-03-11T10:44:31.065Z,11.62
2019-03-11T10:47:01.594Z,11.54
2019-03-11T10:49:33.182Z,11.06
2019-03-11T10:52:03.801Z,10.62
2019-03-11T10:54:33.970Z,10.10
2019-03-11T10:57:05.215Z,10.10
2019-03-11T10:59:35.405Z,9.82
2019-03-11T11:02:06.318Z,9.93
2019-03-11T11:04:37.078Z,10.03
2019-03-11T11:07:07.233Z,9.67
2019-03-11T11:09:37.389Z,9.69
2019-03-11T11:12:08.062Z,9.82
2019-03-11T11:14:38.209Z,10.35
2019-03-11T11:17:08.450Z,10.32
2019-03-11T11:19:40.178Z,10.78
2019-03-11T11:22:10.351Z,10.54
2019-03-11T11:24:41.296Z,11.03
2019-03-11T11:27:11.444Z,10.52
2019-03-11T11:29:43.626Z,10.00
2019-03-11T11:32:14.218Z,10.77
2019-03-11T11:34:44.815Z,10.80
2019-03-11T11:37:16.717Z,11.38
2019-03-11T11:39:46.873Z,11.72
2019-03-11T11:42:17.149Z,12.06
2019-03-11T11:44:47.731Z,12.47
2019-03-11T11:47:17.879Z,12.38
2019-03-11T11:49:48.379Z,13.13
2019-03-11T11:52:18.977Z,13.34
2019-03-11T11:54:49.129Z,13.98
2019-03-11T11:57:21.660Z,14.83
2019-03-11T11:59:54.287Z,15.01
2019-03-11T12:02:24.234Z,14.76
2019-03-11T12:04:54.390Z,14.98
2019-03-11T12:07:24.668Z,14.79
2019-03-11T12:09:55.219Z,14.70
2019-03-11T12:12:25.382Z,13.84
2019-03-11T12:14:55.529Z,13.57
2019-03-11T12:17:25.779Z,14.07
2019-03-11T12:19:57.694Z,13.77
2019-03-11T12:22:28.290Z,14.32
2019-03-11T12:24:58.447Z,14.89
2019-03-11T12:27:32.774Z,15.45
2019-03-11T12:30:03.377Z,15.35
2019-03-11T12:32:34.521Z,15.30
2019-03-11T12:35:05.071Z,16.34
2019-03-11T12:37:35.681Z,17.39
2019-03-11T12:40:06.969Z,17.74
2019-03-11T12:42:37.157Z,15.78
2019-03-11T12:45:08.133Z,14.68
2019-03-11T12:47:38.321Z,14.15
2019-03-11T12:50:14.804Z,14.32
2019-03-11T12:52:45.649Z,13.61
2019-03-11T12:55:15.800Z,14.88
2019-03-11T12:57:47.031Z,15.88
2019-03-11T13:00:18.687Z,16.01
2019-03-11T13:02:49.038Z,14.57
2019-03-11T13:05:19.775Z,14.16
2019-03-11T13:07:50.496Z,14.02
2019-03-11T13:10:21.980Z,14.06
2019-03-11T13:12:52.390Z,13.41
2019-03-11T13:15:23.092Z,13.20
2019-03-11T13:17:53.355Z,13.67
2019-03-11T13:20:27.737Z,14.30
2019-03-11T13:22:57.966Z,14.60
2019-03-11T13:25:28.221Z,15.31
2019-03-11T13:27:59.864Z,15.92
2019-03-11T13:30:30.466Z,16.05
2019-03-11T13:33:00.627Z,15.86
2019-03-11T13:35:30.779Z,17.37
2019-03-11T13:38:00.942Z,16.63
2019-03-11T13:40:31.089Z,17.60
2019-03-11T13:43:02.333Z,18.68
2019-03-11T13:45:35.427Z,20.43
2019-03-11T13:48:05.581Z,22.44
2019-03-11T13:50:36.156Z,21.23
2019-03-11T13:53:06.412Z,23.14
2019-03-11T13:55:36.592Z,24.23
2019-03-11T13:58:08.593Z,24.02
2019-03-11T14:00:39.303Z,23.35
2019-03-11T14:03:09.798Z,24.76
2019-03-11T14:05:39.963Z,25.27
2019-03-11T14:08:10.095Z,25.84
2019-03-11T14:10:40.799Z,25.93
2019-03-11T14:13:11.029Z,26.88
2019-03-11T14:15:44.048Z,26.92
2019-03-11T14:18:14.233Z,23.96
2019-03-11T14:20:45.234Z,21.17
2019-03-11T14:23:16.359Z,20.21
2019-03-11T14:25:46.532Z,18.50
2019-03-11T14:28:16.705Z,17.06
2019-03-11T14:30:48.208Z,16.57
2019-03-11T14:33:18.455Z,16.43
2019-03-11T14:35:48.610Z,16.11
2019-03-11T14:38:20.359Z,15.41
2019-03-11T14:40:51.083Z,15.31
2019-03-11T14:43:21.561Z,15.25
2019-03-11T14:45:51.841Z,14.79
2019-03-11T14:48:22.596Z,14.84
2019-03-11T14:50:55.039Z,14.76
2019-03-11T14:53:26.260Z,14.84
2019-03-11T14:55:56.895Z,14.61
2019-03-11T14:58:29.552Z,14.41
2019-03-11T15:01:04.040Z,13.84
2019-03-11T15:03:35.922Z,13.84
2019-03-11T15:06:07.158Z,14.36
2019-03-11T15:08:37.378Z,14.57
2019-03-11T15:11:09.218Z,14.53
2019-03-11T15:13:39.526Z,14.63
2019-03-11T15:16:09.995Z,14.37
2019-03-11T15:18:40.171Z,14.91
2019-03-11T15:21:11.880Z,14.83
2019-03-11T15:23:42.693Z,14.00
2019-03-11T15:26:13.030Z,14.31
2019-03-11T15:28:43.294Z,14.27
2019-03-11T15:31:13.791Z,14.03
2019-03-11T15:33:44.010Z,14.22
2019-03-11T15:36:23.101Z,13.61
2019-03-11T15:38:53.377Z,13.74
2019-03-11T15:41:23.529Z,13.58
2019-03-11T15:43:53.928Z,13.36
2019-03-11T15:46:24.051Z,13.05
2019-03-11T15:48:54.227Z,12.52
2019-03-11T15:51:24.862Z,12.14
2019-03-11T15:53:55.442Z,11.98
2019-03-11T15:56:26.098Z,12.07
2019-03-11T15:58:57.505Z,12.41
2019-03-11T16:01:27.649Z,12.63
2019-03-11T16:03:58.897Z,11.92
2019-03-11T16:06:29.607Z,12.63
2019-03-11T16:09:02.154Z,12.65
2019-03-11T16:11:34.352Z,12.62
2019-03-11T16:14:04.557Z,12.50
2019-03-11T16:16:35.200Z,12.64
2019-03-11T16:19:05.367Z,12.87
2019-03-11T16:21:36.772Z,13.00
2019-03-11T16:24:06.930Z,12.43
2019-03-11T16:26:37.083Z,12.32
2019-03-11T16:29:08.630Z,11.84
2019-03-11T16:31:39.416Z,12.18
2019-03-11T16:34:09.561Z,12.61
2019-03-11T16:36:39.765Z,12.80
2019-03-11T16:39:10.060Z,12.67
2019-03-11T16:41:40.402Z,12.25
2019-03-11T16:44:12.131Z,11.94
2019-03-11T16:46:42.750Z,12.08
2019-03-11T16:49:12.918Z,11.98
2019-03-11T16:51:43.699Z,11.88
2019-03-11T16:54:13.877Z,12.65
2019-03-11T16:56:44.027Z,12.44
2019-03-11T16:59:17.207Z,12.50
2019-03-11T17:01:48.872Z,12.34
2019-03-11T17:04:19.140Z,11.93
2019-03-11T17:06:49.297Z,12.39
2019-03-11T17:09:19.487Z,12.36
2019-03-11T17:11:49.760Z,12.61
2019-03-11T17:14:20.389Z,12.15
2019-03-11T17:16:50.920Z,11.14
2019-03-11T17:19:21.282Z,11.67
2019-03-11T17:21:51.528Z,11.77
2019-03-11T17:24:21.693Z,11.75
2019-03-11T17:26:52.180Z,11.62
2019-03-11T17:29:22.758Z,11.33
2019-03-11T17:31:52.928Z,11.40
2019-03-11T17:34:23.639Z,11.26
2019-03-11T17:36:53.770Z,11.52
2019-03-11T17:39:23.977Z,11.89
2019-03-11T17:41:54.612Z,10.85
2019-03-11T17:44:25.299Z,10.82
2019-03-11T17:46:55.467Z,11.16
2019-03-11T17:49:26.208Z,11.24
2019-03-11T17:51:56.348Z,11.38
2019-03-11T17:54:26.523Z,11.52
2019-03-11T17:56:56.723Z,11.48
2019-03-11T17:59:28.184Z,11.40
2019-03-11T18:01:58.759Z,11.14
2019-03-11T18:04:28.951Z,11.39
2019-03-11T18:06:59.717Z,11.08
2019-03-11T18:09:30.373Z,11.48
2019-03-11T18:12:00.595Z,11.92
2019-03-11T18:14:30.760Z,12.13
2019-03-11T18:17:01.285Z,12.22
2019-03-11T18:19:32.405Z,11.88
2019-03-11T18:22:04.127Z,11.97
2019-03-11T18:24:34.354Z,12.36
2019-03-11T18:27:04.530Z,12.48
2019-03-11T18:29:35.791Z,12.80
2019-03-11T18:32:06.579Z,12.84
2019-03-11T18:34:36.724Z,12.72
2019-03-11T18:37:07.345Z,12.19
2019-03-11T18:39:38.010Z,12.31
2019-03-11T18:42:08.176Z,12.75
2019-03-11T18:44:38.351Z,12.25
2019-03-11T18:47:09.006Z,11.97
2019-03-11T18:49:40.388Z,12.07
2019-03-11T18:52:11.909Z,12.21
2019-03-11T18:54:42.173Z,12.24
2019-03-11T18:57:12.319Z,12.04
2019-03-11T18:59:44.233Z,12.11
2019-03-11T19:02:14.870Z,11.45
2019-03-11T19:04:45.034Z,11.50
2019-03-11T19:07:15.376Z,11.17
2019-03-11T19:09:45.573Z,11.80
2019-03-11T19:12:16.808Z,11.92
2019-03-11T19:14:47.041Z,11.60
2019-03-11T19:17:18.827Z,11.46
2019-03-11T19:19:49.012Z,11.64
2019-03-11T19:22:19.722Z,11.90
2019-03-11T19:24:50.432Z,11.91
2019-03-11T19:27:20.614Z,12.02
2019-03-11T19:29:51.156Z,11.24
2019-03-11T19:32:21.878Z,11.77
2019-03-11T19:34:54.738Z,11.60
2019-03-11T19:37:24.968Z,11.54
2019-03-11T19:39:55.457Z,11.76
2019-03-11T19:42:28.141Z,11.26
2019-03-11T19:44:58.346Z,11.69
2019-03-11T19:47:28.752Z,11.86
2019-03-11T19:49:59.429Z,12.05
2019-03-11T19:52:30.016Z,12.33
2019-03-11T19:55:00.733Z,11.80
2019-03-11T19:57:32.588Z,11.66
2019-03-11T20:00:04.841Z,11.52
2019-03-11T20:02:35.075Z,11.79
2019-03-11T20:05:06.134Z,11.61
2019-03-11T20:07:37.400Z,12.28
2019-03-11T20:10:08.623Z,12.19
2019-03-11T20:12:38.857Z,11.89
2019-03-11T20:15:10.388Z,11.98
2019-03-11T20:17:41.019Z,12.06
2019-03-11T20:20:12.307Z,12.02
2019-03-11T20:22:42.701Z,12.07
2019-03-11T20:25:15.453Z,12.63
2019-03-11T20:27:46.496Z,12.69
2019-03-11T20:30:20.042Z,12.81
2019-03-11T20:32:50.760Z,12.37
2019-03-11T20:35:21.047Z,12.56
2019-03-11T20:37:51.771Z,12.78
2019-03-11T20:40:24.330Z,12.25
2019-03-11T20:42:54.614Z,12.00
2019-03-11T20:45:26.238Z,12.39
2019-03-11T20:47:57.017Z,12.33
2019-03-11T20:50:27.270Z,12.30
2019-03-11T20:52:58.610Z,11.98
2019-03-11T20:55:29.986Z,11.80
2019-03-11T20:58:02.882Z,12.33
2019-03-11T21:00:34.637Z,12.39
2019-03-11T21:03:05.474Z,11.69
2019-03-11T21:05:36.719Z,12.09
2019-03-11T21:08:07.263Z,12.08
2019-03-11T21:10:38.768Z,12.43
2019-03-11T21:13:09.736Z,12.19
2019-03-11T21:15:41.098Z,12.14
2019-03-11T21:18:11.398Z,12.48
2019-03-11T21:20:41.563Z,12.31
2019-03-11T21:23:13.626Z,12.30
2019-03-11T21:25:44.298Z,12.64
2019-03-11T21:28:14.514Z,12.59
2019-03-11T21:30:45.333Z,12.51
2019-03-11T21:33:15.827Z,12.31
2019-03-11T21:35:46.491Z,12.46
2019-03-11T21:38:16.966Z,12.32
2019-03-11T21:40:47.758Z,12.00
2019-03-11T21:43:18.300Z,11.95
2019-03-11T21:45:49.957Z,12.41
2019-03-11T21:48:20.123Z,12.64
2019-03-11T21:50:50.351Z,12.65
2019-03-11T21:53:20.887Z,12.59
2019-03-11T21:55:54.133Z,12.54
2019-03-11T21:58:25.047Z,12.08
2019-03-11T22:00:58.179Z,11.89
2019-03-11T22:03:30.000Z,12.30
2019-03-11T22:06:00.968Z,12.38
2019-03-11T22:08:31.196Z,12.52
2019-03-11T22:11:02.073Z,12.59
2019-03-11T22:13:33.097Z,12.40
2019-03-11T22:16:03.995Z,12.60
2019-03-11T22:18:35.198Z,12.49
2019-03-11T22:21:05.712Z,12.42
2019-03-11T22:23:35.923Z,12.45
2019-03-11T22:26:06.552Z,12.23
2019-03-11T22:28:37.246Z,12.28
2019-03-11T22:31:07.408Z,12.31
2019-03-11T22:33:37.591Z,12.49
2019-03-11T22:36:09.467Z,12.48
2019-03-11T22:38:39.755Z,12.40
2019-03-11T22:41:10.149Z,11.86
2019-03-11T22:43:40.403Z,12.17
2019-03-11T22:46:13.772Z,12.38
2019-03-11T22:48:45.030Z,12.50
2019-03-11T22:51:15.338Z,12.52
2019-03-11T22:53:46.216Z,12.39
2019-03-11T22:56:16.727Z,12.63
2019-03-11T22:58:47.760Z,12.67
2019-03-11T23:01:20.903Z,12.51
2019-03-11T23:03:52.706Z,12.25
2019-03-11T23:06:22.941Z,12.21
2019-03-11T23:08:54.411Z,11.80
2019-03-11T23:11:24.563Z,11.84
2019-03-11T23:13:55.261Z,11.37
2019-03-11T23:16:25.420Z,11.12
2019-03-11T23:18:56.938Z,11.83
2019-03-11T23:21:27.134Z,11.53
2019-03-11T23:24:16.927Z,11.77
2019-03-11T23:26:55.312Z,11.98
2019-03-11T23:29:54.445Z,12.13
2019-03-11T23:32:29.127Z,12.34
2019-03-11T23:34:59.653Z,12.20
2019-03-11T23:37:29.810Z,11.88
2019-03-11T23:40:01.308Z,11.73
2019-03-11T23:42:32.825Z,11.44
2019-03-11T23:45:03.051Z,11.69
2019-03-11T23:47:33.294Z,11.49
2019-03-11T23:50:04.545Z,11.78
2019-03-11T23:52:35.041Z,11.94
2019-03-11T23:55:06.312Z,11.88
2019-03-11T23:57:36.523Z,11.65
